createdAt,value
2023-03-27T03:11:23.927Z,100.00
2023-03-27T03:14:31.621Z,100.00
2023-03-27T03:17:34.728Z,100.00
2023-03-27T03:20:37.296Z,100.00
2023-03-27T03:23:39.768Z,100.00
2023-03-27T03:26:45.017Z,100.00
2023-03-27T03:29:48.485Z,100.00
2023-03-27T03:32:51.165Z,100.00
2023-03-27T03:35:53.603Z,100.00
2023-03-27T03:38:58.464Z,100.00
2023-03-27T03:42:00.657Z,100.00
2023-03-27T03:45:03.217Z,100.00
2023-03-27T03:48:05.543Z,100.00
2023-03-27T03:51:08.089Z,100.00
2023-03-27T03:54:10.299Z,100.00
2023-03-27T03:57:12.854Z,100.00
2023-03-27T04:00:16.851Z,100.00
2023-03-27T04:03:19.284Z,100.00
2023-03-27T04:06:25.286Z,100.00
2023-03-27T04:09:32.671Z,100.00
2023-03-27T04:12:35.683Z,100.00
2023-03-27T04:15:38.148Z,100.00
2023-03-27T04:18:42.471Z,100.00
2023-03-27T04:21:47.318Z,100.00
2023-03-27T04:24:50.602Z,100.00
2023-03-27T04:27:53.397Z,100.00
2023-03-27T04:30:56.731Z,100.00
2023-03-27T04:34:03.426Z,100.00
2023-03-27T04:37:08.549Z,100.00
2023-03-27T04:40:13.289Z,100.00
2023-03-27T04:43:19.047Z,100.00
2023-03-27T04:46:21.899Z,100.00
2023-03-27T04:49:26.653Z,100.00
2023-03-27T04:52:33.526Z,100.00
2023-03-27T04:55:38.873Z,100.00
2023-03-27T04:58:41.369Z,100.00
2023-03-27T05:01:44.609Z,100.00
2023-03-27T05:04:48.813Z,100.00
2023-03-27T05:07:52.645Z,100.00
2023-03-27T05:10:55.145Z,100.00
2023-03-27T05:13:57.765Z,100.00
2023-03-27T05:17:01.223Z,100.00
2023-03-27T05:20:04.212Z,100.00
2023-03-27T05:23:07.557Z,100.00
2023-03-27T05:26:10.018Z,100.00
2023-03-27T05:29:13.958Z,100.00
2023-03-27T05:32:17.664Z,100.00
2023-03-27T05:35:23.297Z,100.00
2023-03-27T05:38:26.376Z,100.00
2023-03-27T05:41:29.694Z,100.00
2023-03-27T05:44:32.644Z,100.00
2023-03-27T05:47:52.856Z,100.00
2023-03-27T05:50:56.003Z,100.00
2023-03-27T05:53:58.589Z,100.00
2023-03-27T05:57:01.774Z,100.00
2023-03-27T06:00:11.569Z,100.00
2023-03-27T06:03:19.957Z,100.00
2023-03-27T06:06:24.003Z,100.00
2023-03-27T06:09:29.716Z,100.00
2023-03-27T06:12:36.875Z,100.00
2023-03-27T06:15:41.739Z,100.00
2023-03-27T06:18:44.725Z,100.00
2023-03-27T06:21:47.910Z,100.00
2023-03-27T06:24:50.374Z,100.00
2023-03-27T06:27:53.827Z,100.00
2023-03-27T06:30:57.731Z,100.00
2023-03-27T06:34:00.390Z,100.00
2023-03-27T06:37:05.161Z,100.00
2023-03-27T06:40:10.312Z,100.00
2023-03-27T06:43:13.897Z,100.00
2023-03-27T06:46:21.013Z,100.00
2023-03-27T06:49:24.727Z,100.00
2023-03-27T06:52:26.966Z,100.00
2023-03-27T06:55:33.797Z,100.00
2023-03-27T06:58:36.527Z,100.00
2023-03-27T07:01:40.982Z,100.00
2023-03-27T07:04:54.171Z,100.00
2023-03-27T07:08:22.505Z,100.00
2023-03-27T07:11:26.979Z,100.00
2023-03-27T07:14:29.528Z,100.00
2023-03-27T07:17:47.538Z,100.00
2023-03-27T07:20:51.445Z,100.00
2023-03-27T07:23:54.059Z,100.00
2023-03-27T07:26:59.096Z,100.00
2023-03-27T07:30:04.195Z,100.00
2023-03-27T07:33:09.468Z,100.00
2023-03-27T07:36:12.573Z,100.00
2023-03-27T07:39:15.254Z,100.00
2023-03-27T07:42:17.594Z,100.00
2023-03-27T07:45:22.500Z,100.00
2023-03-27T07:48:25.226Z,100.00
2023-03-27T07:51:28.202Z,100.00
2023-03-27T07:54:31.424Z,100.00
2023-03-27T07:57:57.193Z,100.00
2023-03-27T08:01:04.255Z,100.00
2023-03-27T08:04:07.106Z,100.00
2023-03-27T08:07:11.597Z,100.00
2023-03-27T08:10:16.023Z,100.00
2023-03-27T08:13:19.923Z,100.00
2023-03-27T08:16:27.679Z,100.00
2023-03-27T08:19:33.441Z,100.00
2023-03-27T08:22:38.341Z,100.00
2023-03-27T08:25:51.700Z,100.00
2023-03-27T08:28:56.524Z,100.00
2023-03-27T08:31:59.031Z,100.00
2023-03-27T08:35:01.756Z,100.00
2023-03-27T08:38:07.327Z,100.00
2023-03-27T08:41:38.512Z,100.00
2023-03-27T08:44:42.993Z,100.00
2023-03-27T08:48:02.960Z,100.00
2023-03-27T08:51:10.937Z,100.00
2023-03-27T08:54:25.484Z,100.00
2023-03-27T08:57:28.398Z,100.00
2023-03-27T09:00:39.616Z,100.00
2023-03-27T09:04:10.730Z,100.00
2023-03-27T09:07:36.057Z,100.00
2023-03-27T09:10:48.754Z,100.00
2023-03-27T09:13:54.859Z,100.00
2023-03-27T09:17:00.940Z,100.00
2023-03-27T09:20:38.755Z,100.00
2023-03-27T09:23:46.364Z,100.00
2023-03-27T09:27:04.565Z,100.00
2023-03-27T09:30:11.964Z,100.00
2023-03-27T09:33:15.868Z,100.00
2023-03-27T09:36:18.800Z,100.00
2023-03-27T09:39:38.502Z,100.00
2023-03-27T09:42:44.148Z,100.00
2023-03-27T09:45:49.569Z,100.00
2023-03-27T09:49:09.565Z,100.00
2023-03-27T09:52:40.383Z,100.00
2023-03-27T09:55:58.341Z,100.00
2023-03-27T09:59:19.433Z,100.00
2023-03-27T10:02:24.563Z,100.00
2023-03-27T10:05:29.228Z,100.00
2023-03-27T10:08:46.243Z,100.00
2023-03-27T10:11:51.119Z,100.00
2023-03-27T10:14:57.749Z,100.00
2023-03-27T10:18:07.286Z,100.00
2023-03-27T10:21:16.628Z,100.00
2023-03-27T10:24:44.515Z,100.00
2023-03-27T10:27:52.459Z,100.00
2023-03-27T10:31:03.661Z,100.00
2023-03-27T10:34:37.560Z,100.00
2023-03-27T10:37:50.502Z,100.00
2023-03-27T10:40:56.315Z,100.00
2023-03-27T10:44:00.677Z,100.00
2023-03-27T10:47:04.971Z,100.00
2023-03-27T10:50:21.809Z,100.00
2023-03-27T10:53:41.713Z,100.00
2023-03-27T10:56:53.454Z,100.00
2023-03-27T11:00:00.533Z,100.00
2023-03-27T11:03:13.720Z,100.00
2023-03-27T11:06:19.432Z,100.00
2023-03-27T11:09:29.468Z,100.00
2023-03-27T11:12:36.359Z,100.00
2023-03-27T11:15:50.553Z,100.00
2023-03-27T11:19:19.100Z,100.00
2023-03-27T11:22:34.674Z,100.00
2023-03-27T11:25:46.853Z,100.00
2023-03-27T11:29:11.381Z,100.00
2023-03-27T11:32:52.938Z,100.00
2023-03-27T11:36:06.439Z,100.00
2023-03-27T11:39:22.959Z,100.00
2023-03-27T11:42:32.523Z,100.00
2023-03-27T11:45:45.030Z,100.00
2023-03-27T11:49:05.524Z,100.00
2023-03-27T11:52:29.168Z,100.00
2023-03-27T11:56:02.740Z,100.00
2023-03-27T11:59:20.517Z,100.00
2023-03-27T12:02:40.934Z,100.00
2023-03-27T12:06:14.135Z,100.00
2023-03-27T12:09:57.145Z,100.00
2023-03-27T12:13:19.841Z,100.00
2023-03-27T12:16:50.114Z,100.00
2023-03-27T12:20:21.579Z,100.00
2023-03-27T12:23:45.870Z,100.00
2023-03-27T12:27:17.046Z,100.00
2023-03-27T12:30:35.014Z,100.00
2023-03-27T12:33:53.375Z,100.00
2023-03-27T12:36:59.300Z,100.00
2023-03-27T12:40:12.927Z,100.00
2023-03-27T12:43:31.710Z,100.00
2023-03-27T12:46:40.025Z,100.00
2023-03-27T12:49:48.140Z,100.00
2023-03-27T12:52:54.725Z,100.00
2023-03-27T12:56:16.185Z,100.00
2023-03-27T12:59:26.305Z,100.00
2023-03-27T13:02:54.030Z,100.00
2023-03-27T13:06:26.510Z,100.00
2023-03-27T13:09:29.403Z,99.83
2023-03-27T13:12:50.718Z,98.90
2023-03-27T13:16:02.892Z,100.00
2023-03-27T13:19:14.244Z,99.46
2023-03-27T13:22:26.233Z,96.84
2023-03-27T13:25:59.096Z,97.29
2023-03-27T13:29:15.886Z,95.90
2023-03-27T13:32:33.539Z,96.10
2023-03-27T13:35:53.406Z,96.57
2023-03-27T13:38:56.641Z,97.92
2023-03-27T13:42:12.370Z,96.31
2023-03-27T13:45:18.420Z,98.40
2023-03-27T13:48:56.532Z,98.68
2023-03-27T13:52:24.666Z,98.54
2023-03-27T13:55:46.317Z,100.00
2023-03-27T13:59:14.236Z,100.00
2023-03-27T14:02:47.151Z,98.21
2023-03-27T14:06:15.651Z,98.32
2023-03-27T14:09:30.246Z,96.15
2023-03-27T14:12:56.659Z,97.31
2023-03-27T14:16:27.961Z,97.94
2023-03-27T14:20:13.105Z,95.77
2023-03-27T14:23:26.417Z,94.90
2023-03-27T14:26:31.538Z,94.04
2023-03-27T14:29:34.838Z,96.45
2023-03-27T14:32:37.656Z,96.53
2023-03-27T14:35:46.833Z,98.31
2023-03-27T14:38:49.549Z,98.55
2023-03-27T14:42:03.354Z,94.25
2023-03-27T14:45:09.779Z,91.87
2023-03-27T14:48:30.313Z,89.19
2023-03-27T14:51:47.453Z,87.40
2023-03-27T14:54:55.450Z,86.77
2023-03-27T14:58:11.063Z,85.90
2023-03-27T15:01:16.941Z,84.76
2023-03-27T15:04:24.665Z,82.96
2023-03-27T15:07:28.592Z,82.97
2023-03-27T15:10:32.678Z,82.99
2023-03-27T15:13:36.544Z,83.93
2023-03-27T15:16:41.287Z,83.23
2023-03-27T15:19:54.715Z,82.67
2023-03-27T15:23:17.047Z,84.50
2023-03-27T15:26:24.624Z,84.49
2023-03-27T15:29:39.026Z,83.21
2023-03-27T15:32:50.664Z,82.42
